Hudson, Florida
Current Conditions -  °F | °C
As of 7:53 PM on Tuesday 21 Oct 2014 (Local Time) from KBKV Reporting Station
Clear Clear  
Wind Chill: 70°   Ceiling: Unl
Heat Index: 70°   Visibility: 10mi
Dew Point: 66°   Wind: 0mph
Humidity: 87%   Direction: NA
Pressure: 29.95"   Gusts: NA
Location:  28.36°N, 82.69°W
Report Text: KBKV 212353Z AUTO 00000KT 10SM CLR 21/19 A2995 RMK AO2 SLP141 T02110189 10294 20211 53011
Loading
Personal Weather Stations






























Interactive Weather Map
Tropical Storm Tracking
New forecast layout! Learn more

10-Day Weather Forecast

Advertisements
Track Severe Weather on mobile